Time;durP1;ratioP1;P1;durP2;ratioP2;P2;SDS_P1;SDS_P2;PMS_P1;PMS_P2;Temp;Humidity;BMP_temperature;BMP_pressure;BME280_temperature;BME280_humidity;BME280_pressure;Samples;Min_cycle;Max_cycle;Signal;HPM_P1;HPM_P2
2022/12/30 00:00:58;;;;;;;6.72;1.55;;;;;;;-148.88;97.75;75964.09;5033503;28;20025;-74
2022/12/30 00:03:24;;;;;;;9.60;2.20;;;;;;;-148.88;98.12;75968.16;5033307;28;20025;-74
2022/12/30 00:05:49;;;;;;;4.72;1.45;;;;;;;-148.88;98.11;75974.25;5033589;28;20025;-74
2022/12/30 00:10:58;;;;;;;11.32;2.00;;;;;;;-148.88;97.53;75970.19;5033618;28;20444;-74
2022/12/30 00:33:06;;;;;;;12.65;2.38;;;;;;;-148.88;97.81;75992.53;5033049;28;19967;-74
2022/12/30 00:35:32;;;;;;;9.20;1.85;;;;;;;-148.88;97.69;75992.53;5015196;28;20546;-75
2022/12/30 00:37:57;;;;;;;9.23;1.80;;;;;;;-148.88;97.90;76000.66;5032910;28;20100;-75
2022/12/30 00:40:23;;;;;;;10.80;1.90;;;;;;;-148.88;97.76;76004.72;5032933;28;20371;-76
2022/12/30 00:45:32;;;;;;;11.18;2.88;;;;;;;-148.88;97.85;76008.78;5033315;28;20440;-75
2022/12/30 00:47:57;;;;;;;7.05;2.13;;;;;;;-148.88;97.90;76006.75;5033133;28;20022;-75
2022/12/30 00:58:34;;;;;;;15.35;2.58;;;;;;;-148.88;98.16;76010.81;5032974;28;20399;-74
2022/12/30 01:01:00;;;;;;;14.10;2.97;;;;;;;-148.88;96.84;76012.84;5032742;28;20493;-74
2022/12/30 01:03:25;;;;;;;7.85;2.20;;;;;;;-148.88;97.69;76025.03;5033054;28;20083;-75
2022/12/30 01:05:50;;;;;;;12.05;2.63;;;;;;;-148.88;97.49;76025.03;5032640;28;20017;-74
2022/12/30 01:08:16;;;;;;;10.90;2.30;;;;;;;-148.88;97.05;76016.91;5032507;28;20111;-74
2022/12/30 01:10:41;;;;;;;19.30;2.10;;;;;;;-148.88;97.10;76025.03;5032678;28;20026;-75
2022/12/30 01:13:07;;;;;;;14.80;2.25;;;;;;;-148.88;97.89;76029.09;5032720;28;20397;-75
2022/12/30 01:15:34;;;;;;;7.15;1.95;;;;;;;-148.88;97.75;76025.03;5032578;28;20022;-74
2022/12/30 01:17:59;;;;;;;8.38;2.25;;;;;;;-148.88;97.63;76033.16;5032795;28;20105;-74
2022/12/30 01:20:24;;;;;;;9.65;2.55;;;;;;;-148.88;97.32;76037.22;5032553;28;20504;-75
2022/12/30 01:22:53;;;;;;;6.03;2.13;;;;;;;-148.88;97.12;76037.22;5032344;28;20033;-74
2022/12/30 01:25:18;;;;;;;11.77;2.38;;;;;;;-148.88;97.27;76033.16;5032407;28;20025;-74
2022/12/30 01:27:43;;;;;;;12.30;2.92;;;;;;;-148.88;96.96;76033.16;5032236;28;20036;-74
2022/12/30 01:30:09;;;;;;;7.57;1.90;;;;;;;-148.88;97.52;76041.28;5032679;28;20026;-74
2022/12/30 01:32:36;;;;;;;8.25;1.80;;;;;;;-148.88;97.41;76041.28;5034968;28;20025;-75
2022/12/30 01:35:02;;;;;;;11.48;2.60;;;;;;;-148.88;97.62;76051.44;5036148;28;20474;-74
2022/12/30 01:37:28;;;;;;;12.68;2.67;;;;;;;-148.88;97.83;76053.47;5036006;28;20104;-74
2022/12/30 01:39:53;;;;;;;9.45;2.42;;;;;;;-148.88;98.23;76055.50;5036097;28;20100;-75
2022/12/30 01:42:22;;;;;;;8.43;2.33;;;;;;;-148.88;97.81;76069.72;5036537;28;20025;-74
2022/12/30 01:44:56;;;;;;;8.90;2.20;;;;;;;-148.88;98.00;76077.84;5035821;28;20465;-74
2022/12/30 01:47:23;;;;;;;;;;;;;;;-148.88;98.19;76073.78;5036328;28;20036;-74
2022/12/30 01:49:53;;;;;;;10.70;1.98;;;;;;;-148.88;98.12;76085.97;5035786;28;20361;-74
2022/12/30 01:52:23;;;;;;;10.23;2.17;;;;;;;-148.88;99.07;76098.16;5036002;28;20025;-74
2022/12/30 01:54:50;;;;;;;8.75;2.15;;;;;;;-148.88;99.45;76104.25;5035653;28;20113;-74
2022/12/30 01:57:16;;;;;;;8.68;1.88;;;;;;;-148.88;99.25;76090.03;5035707;28;20056;-75
2022/12/30 01:59:43;;;;;;;9.45;1.63;;;;;;;-148.88;99.11;76100.19;5035802;28;20159;-74
2022/12/30 02:02:09;;;;;;;9.13;1.90;;;;;;;-148.88;99.25;76102.22;5035843;28;20393;-74
2022/12/30 02:04:35;;;;;;;7.10;2.00;;;;;;;-148.88;99.32;76110.34;5035398;28;20503;-74
2022/12/30 02:07:27;;;;;;;6.00;1.60;;;;;;;-148.88;100.00;76106.28;5035512;28;20537;-74
2022/12/30 02:09:55;;;;;;;11.20;2.15;;;;;;;-148.88;99.91;76118.47;5035419;28;20436;-74
2022/12/30 02:12:20;;;;;;;9.93;2.08;;;;;;;-148.88;100.00;76126.59;5035304;28;20044;-74
2022/12/30 02:14:47;;;;;;;8.38;2.10;;;;;;;-148.88;100.00;76122.56;5035436;28;20116;-74
2022/12/30 02:17:32;;;;;;;13.82;1.92;;;;;;;-148.88;100.00;76132.72;5035570;28;20056;-74
2022/12/30 02:20:30;;;;;;;7.55;1.65;;;;;;;-148.88;100.00;76126.59;5035214;28;20028;-75
2022/12/30 02:23:14;;;;;;;11.40;2.45;;;;;;;-148.88;100.00;76142.88;5035229;28;20029;-74
2022/12/30 02:28:28;;;;;;;10.57;1.90;;;;;;;-148.88;100.00;76136.78;5013813;28;19922;-74
2022/12/30 02:30:59;;;;;;;9.70;2.05;;;;;;;-148.88;100.00;76136.78;5015472;28;20030;-74
2022/12/30 02:34:01;;;;;;;9.48;1.67;;;;;;;-148.88;100.00;76144.91;5015058;28;20108;-74
2022/12/30 02:37:04;;;;;;;11.75;2.28;;;;;;;-148.88;100.00;76153.03;5014472;28;20042;-74
2022/12/30 02:39:36;;;;;;;10.70;2.33;;;;;;;-148.88;100.00;76153.03;5049723;22;20473;-85
2022/12/30 02:45:33;;;;;;;7.00;1.83;;;;;;;-148.88;100.00;76142.88;5017555;28;20521;-85
2022/12/30 02:48:12;;;;;;;13.43;1.92;;;;;;;-148.88;100.00;76142.88;5032634;28;20053;-85
2022/12/30 02:53:28;;;;;;;9.38;2.05;;;;;;;-148.88;100.00;76159.13;5017697;28;20041;-85
2022/12/30 02:55:54;;;;;;;11.48;2.42;;;;;;;-148.88;100.00;76155.06;5015891;28;20018;-85
2022/12/30 02:58:22;;;;;;;10.10;1.90;;;;;;;-148.88;100.00;76171.31;5031987;28;20014;-84
2022/12/30 03:04:01;;;;;;;11.20;2.00;;;;;;;-148.88;100.00;76171.31;5016596;28;20041;-84
2022/12/30 03:06:53;;;;;;;12.80;2.40;;;;;;;-148.88;100.00;76173.34;5030982;28;20045;-84
2022/12/30 03:09:32;;;;;;;7.82;1.92;;;;;;;-148.88;100.00;76191.63;5015266;28;20080;-85
2022/12/30 03:12:21;;;;;;;11.23;2.15;;;;;;;-148.88;100.00;76193.66;5016223;28;20029;-84
2022/12/30 03:14:49;;;;;;;10.73;2.30;;;;;;;-148.88;100.00;76197.72;5015705;28;20428;-84
2022/12/30 03:17:30;;;;;;;11.07;2.33;;;;;;;-148.88;100.00;76205.84;5015120;28;20026;-84
2022/12/30 03:20:01;;;;;;;9.02;1.85;;;;;;;-148.88;100.00;76218.03;5031244;28;20025;-85
2022/12/30 03:28:04;;;;;;;11.63;2.05;;;;;;;-148.88;100.00;76236.31;5016908;28;20088;-85
2022/12/30 03:30:32;;;;;;;11.07;2.05;;;;;;;-148.88;100.00;76236.31;5031537;28;20017;-85
2022/12/30 03:32:58;;;;;;;13.85;2.55;;;;;;;-148.88;100.00;76240.38;5014965;28;20026;-84
2022/12/30 03:35:27;;;;;;;6.68;1.50;;;;;;;-148.88;100.00;76244.44;5014967;28;20497;-85
2022/12/30 03:37:56;;;;;;;8.55;1.88;;;;;;;-148.88;100.00;76238.34;5014632;28;20394;-85
2022/12/30 03:40:26;;;;;;;9.10;1.48;;;;;;;-148.88;100.00;76254.59;5034011;28;20029;-84
2022/12/30 03:42:53;;;;;;;9.38;1.75;;;;;;;-148.88;100.00;76260.69;5035328;28;20029;-84
2022/12/30 03:45:19;;;;;;;13.25;2.03;;;;;;;-148.88;100.00;76274.91;5018409;28;20029;-84
2022/12/30 03:47:45;;;;;;;8.68;1.80;;;;;;;-148.88;100.00;76266.78;5017129;28;20124;-84
2022/12/30 03:50:10;;;;;;;9.70;1.85;;;;;;;-148.88;100.00;76276.94;5017296;28;20498;-84
2022/12/30 03:52:40;;;;;;;8.02;1.98;;;;;;;-148.88;100.00;76272.88;5018305;28;20049;-85
2022/12/30 03:55:06;;;;;;;12.43;2.13;;;;;;;-148.88;100.00;76281.00;5034594;28;20067;-83
2022/12/30 03:57:32;;;;;;;10.50;1.98;;;;;;;-148.88;100.00;76283.03;5017455;28;20489;-85
2022/12/30 03:59:57;;;;;;;8.80;2.08;;;;;;;-148.88;100.00;76293.19;5035348;28;20047;-85
2022/12/30 04:02:41;;;;;;;12.65;2.25;;;;;;;-148.88;100.00;76287.09;5017820;28;20477;-84
2022/12/30 04:05:17;;;;;;;11.10;1.52;;;;;;;-148.88;100.00;76303.34;5035034;28;20382;-85
2022/12/30 04:07:53;;;;;;;9.32;2.00;;;;;;;-148.88;100.00;76301.31;5035190;28;20040;-85
2022/12/30 04:10:18;;;;;;;8.45;1.70;;;;;;;-148.88;100.00;76305.38;5017525;28;20084;-85
2022/12/30 04:12:50;;;;;;;5.75;1.75;;;;;;;-148.88;100.00;76323.66;5017986;28;20366;-85
2022/12/30 04:15:15;;;;;;;9.95;1.63;;;;;;;-148.88;100.00;76319.59;5017125;28;20036;-85
2022/12/30 04:17:41;;;;;;;7.93;1.67;;;;;;;-148.88;100.00;76317.56;5016631;28;20025;-85
2022/12/30 04:20:06;;;;;;;15.25;2.13;;;;;;;-148.88;100.00;76309.44;5016396;28;20044;-83
2022/12/30 04:22:32;;;;;;;7.00;1.75;;;;;;;-148.88;100.00;76305.38;5034332;28;20025;-84
2022/12/30 04:25:24;;;;;;;12.25;2.10;;;;;;;-148.88;100.00;76305.38;5017643;28;20039;-84
2022/12/30 04:27:49;;;;;;;12.77;2.08;;;;;;;-148.88;100.00;76309.44;5017457;28;20033;-85
2022/12/30 04:30:15;;;;;;;6.93;1.55;;;;;;;-148.88;100.00;76313.50;5019848;28;20029;-84
2022/12/30 04:32:43;;;;;;;13.00;2.03;;;;;;;-148.88;100.00;76325.69;5022453;28;20064;-84
2022/12/30 04:35:11;;;;;;;14.63;1.67;;;;;;;-148.88;100.00;76323.66;5040135;28;20025;-84
2022/12/30 04:37:42;;;;;;;12.00;1.95;;;;;;;-148.88;100.00;76309.44;5020938;28;20064;-85
2022/12/30 04:40:08;;;;;;;10.02;2.17;;;;;;;-148.88;100.00;76297.25;5019923;28;20031;-83
2022/12/30 04:42:34;;;;;;;8.00;1.70;;;;;;;-148.88;100.00;76289.13;5018825;28;20038;-83
2022/12/30 04:45:00;;;;;;;9.25;1.90;;;;;;;-148.88;100.00;76291.16;5020676;28;20021;-83
2022/12/30 04:47:37;;;;;;;11.52;1.73;;;;;;;-148.88;100.00;76293.19;5020505;28;20029;-84
2022/12/30 04:50:07;;;;;;;13.77;2.08;;;;;;;-148.88;100.00;76285.06;5034055;28;20026;-85
2022/12/30 04:52:33;;;;;;;11.25;1.90;;;;;;;-148.88;100.00;76281.00;5016695;28;20386;-85
2022/12/30 04:54:59;;;;;;;13.48;2.38;;;;;;;-148.88;100.00;76264.75;5034950;28;20034;-84
2022/12/30 04:57:27;;;;;;;12.05;1.88;;;;;;;-148.88;100.00;76276.94;5019193;28;20115;-85
2022/12/30 04:59:56;;;;;;;5.35;1.20;;;;;;;-148.88;100.00;76287.09;5035766;28;20025;-85
2022/12/30 05:02:33;;;;;;;9.43;1.95;;;;;;;-148.88;100.00;76285.06;5017519;28;20085;-85
2022/12/30 05:04:58;;;;;;;8.55;2.05;;;;;;;-148.88;100.00;76285.06;5017818;28;20029;-85
2022/12/30 05:07:24;;;;;;;14.35;1.88;;;;;;;-148.88;100.00;76291.16;5039104;28;20064;-84
2022/12/30 05:09:49;;;;;;;7.13;1.55;;;;;;;-148.88;100.00;76289.13;5040905;28;20017;-83
2022/12/30 05:12:14;;;;;;;5.30;1.30;;;;;;;-148.88;100.00;76303.34;5041654;28;20031;-84
2022/12/30 05:14:43;;;;;;;11.32;2.67;;;;;;;-148.88;100.00;76301.31;5022992;28;20456;-84
2022/12/30 05:17:08;;;;;;;12.98;1.73;;;;;;;-148.88;100.00;76293.19;5023571;28;20036;-82
2022/12/30 05:19:33;;;;;;;10.18;2.10;;;;;;;-148.88;100.00;76301.31;5040867;28;20025;-84
2022/12/30 05:21:59;;;;;;;9.80;1.73;;;;;;;-148.88;100.00;76307.41;5024161;28;20128;-83
2022/12/30 05:27:08;;;;;;;8.23;1.92;;;;;;;-148.88;100.00;76305.38;5039074;28;20060;-83
2022/12/30 05:29:34;;;;;;;8.85;1.73;;;;;;;-148.88;100.00;76307.41;5020844;28;20033;-83
2022/12/30 05:31:59;;;;;;;10.55;1.50;;;;;;;-148.88;100.00;76309.44;5022384;28;20056;-83
2022/12/30 05:34:24;;;;;;;12.38;1.60;;;;;;;-148.88;100.00;76315.53;5039342;28;20032;-83
2022/12/30 05:36:49;;;;;;;14.40;2.00;;;;;;;-148.88;100.00;76319.59;5022649;28;20108;-83
2022/12/30 05:39:24;;;;;;;14.18;1.73;;;;;;;-148.88;100.00;76317.56;5039576;28;20021;-83
2022/12/30 05:41:49;;;;;;;11.90;2.10;;;;;;;-148.88;100.00;76331.78;5021507;28;20452;-83
2022/12/30 05:44:14;;;;;;;8.77;1.67;;;;;;;-148.88;100.00;76329.75;5022769;28;20029;-85
2022/12/30 05:46:52;;;;;;;11.60;2.05;;;;;;;-148.88;100.00;76333.81;5021839;28;20028;-82
2022/12/30 05:49:26;;;;;;;6.95;1.55;;;;;;;-148.88;100.00;76339.91;5023599;28;20057;-83
2022/12/30 05:51:52;;;;;;;10.65;2.15;;;;;;;-148.88;100.00;76348.03;5041524;28;20470;-83
2022/12/30 05:54:41;;;;;;;9.98;1.60;;;;;;;-148.88;100.00;76346.00;5040785;28;20021;-84
2022/12/30 05:57:17;;;;;;;6.43;1.83;;;;;;;-148.88;100.00;76350.06;5041184;28;20076;-83
2022/12/30 05:59:43;;;;;;;7.32;1.20;;;;;;;-148.88;100.00;76358.19;5022906;28;20049;-84
2022/12/30 06:02:17;;;;;;;10.73;1.50;;;;;;;-148.88;100.00;76360.22;5019913;28;20036;-85
2022/12/30 06:04:45;;;;;;;7.78;1.55;;;;;;;-148.88;100.00;76370.38;5018455;28;20494;-84
2022/12/30 06:07:16;;;;;;;7.53;1.70;;;;;;;-148.88;100.00;76370.38;5020963;28;20029;-83
2022/12/30 06:09:52;;;;;;;7.68;1.35;;;;;;;-148.88;100.00;76376.47;5021026;28;20030;-83
2022/12/30 06:12:25;;;;;;;11.38;1.65;;;;;;;-148.88;100.00;76370.38;5021036;28;20037;-82
2022/12/30 06:14:59;;;;;;;9.27;2.55;;;;;;;-148.88;100.00;76368.34;5020954;28;20095;-84
2022/12/30 06:17:31;;;;;;;9.18;1.45;;;;;;;-148.88;100.00;76366.31;5038329;28;20440;-82
2022/12/30 06:19:57;;;;;;;6.80;1.60;;;;;;;-148.88;100.00;76374.44;5037620;28;20397;-83
2022/12/30 06:22:28;;;;;;;8.85;1.73;;;;;;;-148.88;100.00;76378.50;5021815;28;20458;-83
2022/12/30 06:24:53;;;;;;;9.60;1.65;;;;;;;-148.88;100.00;76376.47;5022219;28;20405;-86
2022/12/30 06:27:19;;;;;;;7.47;1.63;;;;;;;-148.88;100.00;76382.56;5038170;28;20035;-86
2022/12/30 06:29:44;;;;;;;8.90;1.40;;;;;;;-148.88;100.00;76384.59;5020714;28;20032;-83
2022/12/30 06:32:10;;;;;;;12.07;1.88;;;;;;;-148.88;100.00;76392.72;5022329;28;20059;-83
2022/12/30 06:34:35;;;;;;;7.80;1.48;;;;;;;-148.88;100.00;76390.69;5021963;28;20021;-85
2022/12/30 06:37:04;;;;;;;13.60;1.80;;;;;;;-148.88;100.00;76378.50;5036300;28;20021;-83
2022/12/30 06:39:29;;;;;;;7.00;1.77;;;;;;;-148.88;100.00;76404.91;5018822;28;20025;-85
2022/12/30 06:41:54;;;;;;;10.30;2.03;;;;;;;-148.88;100.00;76402.88;5037459;28;20112;-85
2022/12/30 06:44:20;;;;;;;13.00;3.63;;;;;;;-148.88;100.00;76406.94;5037353;28;20033;-85
2022/12/30 06:46:50;;;;;;;9.20;2.88;;;;;;;-148.88;100.00;76400.84;5020372;28;20440;-86
2022/12/30 06:52:25;;;;;;;12.23;2.38;;;;;;;-148.88;100.00;76415.06;5040650;28;20401;-84
2022/12/30 06:55:17;;;;;;;5.30;1.83;;;;;;;-148.88;100.00;76402.88;5038543;28;20081;-85
2022/12/30 06:57:45;;;;;;;10.68;1.73;;;;;;;-148.88;100.00;76398.81;5040866;28;20493;-84
2022/12/30 07:00:11;;;;;;;9.68;2.17;;;;;;;-148.88;100.00;76396.78;5035264;28;20024;-84
2022/12/30 07:02:36;;;;;;;8.90;1.73;;;;;;;-148.88;100.00;76398.81;5017278;28;20021;-83
2022/12/30 07:05:01;;;;;;;9.27;2.03;;;;;;;-148.88;100.00;76404.91;5035080;28;20075;-83
2022/12/30 07:07:26;;;;;;;18.83;2.45;;;;;;;-148.88;100.00;76406.94;5017128;28;20036;-83
2022/12/30 07:09:52;;;;;;;9.77;1.65;;;;;;;-148.88;100.00;76400.84;5017366;28;20021;-82
2022/12/30 07:12:17;;;;;;;12.52;2.05;;;;;;;-148.88;100.00;76394.75;5017502;28;20384;-82
2022/12/30 07:14:43;;;;;;;8.00;1.75;;;;;;;-148.88;100.00;76394.75;5035007;28;20075;-83
2022/12/30 07:17:08;;;;;;;7.63;1.25;;;;;;;-148.88;100.00;76394.75;5045481;28;20025;-82
2022/12/30 07:19:33;;;;;;;6.18;2.35;;;;;;;-148.88;100.00;76400.84;5035481;28;20025;-83
2022/12/30 07:21:59;;;;;;;7.43;1.50;;;;;;;-148.88;100.00;76400.84;5028009;28;20119;-85
2022/12/30 07:24:24;;;;;;;9.15;2.35;;;;;;;-148.88;100.00;76398.81;5017255;28;20389;-86
2022/12/30 07:26:49;;;;;;;11.02;1.60;;;;;;;-148.88;100.00;76402.88;5034678;28;20032;-86
2022/12/30 07:29:15;;;;;;;8.00;1.60;;;;;;;-148.88;100.00;76396.78;5033679;28;20493;-86
2022/12/30 07:31:40;;;;;;;10.90;1.98;;;;;;;-148.88;100.00;76402.88;5034316;28;20040;-86
2022/12/30 07:34:06;;;;;;;13.40;1.73;;;;;;;-148.88;100.00;76396.78;5034581;28;20032;-86
2022/12/30 07:36:31;;;;;;;9.38;2.03;;;;;;;-148.88;100.00;76390.69;5034314;28;20485;-86
2022/12/30 07:38:57;;;;;;;14.25;1.73;;;;;;;-148.88;100.00;76396.78;5034082;28;20053;-87
2022/12/30 07:41:24;;;;;;;12.40;2.15;;;;;;;-148.88;100.00;76386.63;5016364;28;20028;-88
2022/12/30 07:43:49;;;;;;;7.00;1.65;;;;;;;-148.88;100.00;76374.44;5034809;28;20056;-85
2022/12/30 07:46:14;;;;;;;6.60;1.60;;;;;;;-148.88;100.00;76366.31;5034701;28;20037;-85
2022/12/30 07:48:39;;;;;;;6.68;1.58;;;;;;;-148.88;100.00;76374.44;5034305;28;20108;-85
2022/12/30 07:51:09;;;;;;;11.35;2.05;;;;;;;-148.88;100.00;76368.34;5034578;28;20449;-87
2022/12/30 07:53:34;;;;;;;9.25;1.48;;;;;;;-148.88;100.00;76366.31;5017159;28;20079;-83
2022/12/30 07:56:06;;;;;;;8.60;2.00;;;;;;;-148.88;100.00;76364.28;5017028;28;20021;-86
2022/12/30 07:58:32;;;;;;;10.25;1.35;;;;;;;-148.88;100.00;76358.19;5034300;28;20028;-83
2022/12/30 08:01:01;;;;;;;11.48;1.65;;;;;;;-148.88;100.00;76354.13;5034451;28;20022;-83
2022/12/30 08:03:27;;;;;;;4.72;1.23;;;;;;;-148.88;100.00;76358.19;5016958;28;20052;-83
2022/12/30 08:05:52;;;;;;;6.15;1.80;;;;;;;-148.88;100.00;76354.13;5018307;28;20117;-86
2022/12/30 08:08:18;;;;;;;10.68;1.70;;;;;;;-148.88;100.00;76348.03;5034834;28;20405;-84
2022/12/30 08:10:53;;;;;;;6.43;1.67;;;;;;;-148.88;100.00;76346.00;5034786;28;20049;-85
2022/12/30 08:13:20;;;;;;;8.35;1.52;;;;;;;-148.88;100.00;76346.00;5034740;28;20442;-85
2022/12/30 08:15:45;;;;;;;10.57;1.48;;;;;;;-148.88;100.00;76335.84;5035139;28;20025;-85
2022/12/30 08:18:11;;;;;;;6.47;1.52;;;;;;;-148.88;100.00;76337.88;5017642;28;20105;-83
2022/12/30 08:20:36;;;;;;;7.40;1.73;;;;;;;-148.88;100.00;76335.84;5017067;28;20486;-82
2022/12/30 08:23:01;;;;;;;4.25;1.27;;;;;;;-148.88;100.00;76329.75;5016250;28;20028;-81
2022/12/30 08:25:27;;;;;;;8.45;1.77;;;;;;;-148.88;100.00;76315.53;5016637;28;20049;-84
2022/12/30 08:27:52;;;;;;;5.25;1.30;;;;;;;-148.88;100.00;76313.50;5034342;28;20044;-84
2022/12/30 08:30:17;;;;;;;6.65;1.45;;;;;;;-148.88;100.00;76309.44;5034121;28;20026;-84
2022/12/30 08:32:42;;;;;;;9.18;1.70;;;;;;;-148.88;100.00;76297.25;5019433;28;20025;-83
2022/12/30 08:35:08;;;;;;;8.68;1.58;;;;;;;-148.88;100.00;76291.16;5018143;28;20470;-87
2022/12/30 08:37:34;;;;;;;5.85;1.30;;;;;;;-148.88;99.91;76285.06;5017571;28;20026;-85
2022/12/30 08:39:59;;;;;;;5.93;2.42;;;;;;;-148.88;100.00;76281.00;5035252;28;20029;-83
2022/12/30 08:42:25;;;;;;;11.77;2.20;;;;;;;-148.88;100.00;76272.88;5023731;28;20079;-84
2022/12/30 08:44:53;;;;;;;5.35;1.20;;;;;;;-148.88;100.00;76260.69;5024564;28;20469;-84
2022/12/30 08:47:18;;;;;;;8.57;1.55;;;;;;;-148.88;99.76;76262.72;5024317;28;20021;-84
2022/12/30 08:49:44;;;;;;;10.10;1.45;;;;;;;-148.88;99.67;76252.56;5041547;28;20029;-84
2022/12/30 08:52:09;;;;;;;9.57;1.58;;;;;;;-148.88;99.71;76260.69;5023960;28;20025;-84
2022/12/30 08:54:35;;;;;;;12.00;2.10;;;;;;;-148.88;99.45;76248.50;5041494;28;20033;-85
2022/12/30 08:57:00;;;;;;;9.05;1.85;;;;;;;-148.88;99.32;76252.56;5023541;28;20040;-85
2022/12/30 08:59:25;;;;;;;7.97;1.20;;;;;;;-148.88;99.22;76238.34;5023028;28;20423;-84
2022/12/30 09:01:50;;;;;;;6.60;1.63;;;;;;;-148.88;98.79;76242.41;5042045;28;20032;-86
2022/12/30 09:04:17;;;;;;;9.07;1.75;;;;;;;-148.88;98.50;76228.19;5040973;28;20028;-85
2022/12/30 09:06:42;;;;;;;12.10;1.85;;;;;;;-148.88;98.68;76228.19;5023548;28;20120;-84
2022/12/30 09:09:09;;;;;;;11.98;1.77;;;;;;;-148.88;98.49;76218.03;5040749;28;20037;-85
2022/12/30 09:11:37;;;;;;;4.43;1.30;;;;;;;-148.88;98.57;76224.13;5040961;28;20022;-85
2022/12/30 09:14:04;;;;;;;5.50;1.52;;;;;;;-148.88;98.62;76218.03;5041158;28;20021;-83
2022/12/30 09:16:30;;;;;;;5.72;1.20;;;;;;;-148.88;98.77;76211.94;5023666;28;20229;-84
2022/12/30 09:18:56;;;;;;;4.85;1.10;;;;;;;-148.88;97.92;76207.88;5023240;28;20013;-83
2022/12/30 09:21:21;;;;;;;5.88;1.52;;;;;;;-148.88;98.25;76199.75;5041706;28;20028;-84
2022/12/30 09:23:47;;;;;;;5.60;1.63;;;;;;;-148.88;97.77;76201.78;5041313;28;20021;-83
2022/12/30 09:26:15;;;;;;;7.50;2.47;;;;;;;-148.88;98.02;76195.69;5041071;28;20075;-83
2022/12/30 09:28:40;;;;;;;5.70;1.65;;;;;;;-148.88;98.41;76203.81;5023236;28;20025;-86
2022/12/30 09:31:06;;;;;;;5.78;1.77;;;;;;;-148.88;98.20;76189.59;5040288;28;20025;-86
2022/12/30 09:33:32;;;;;;;6.55;1.52;;;;;;;-148.88;98.18;76183.50;5023552;28;20536;-86
2022/12/30 09:35:57;;;;;;;6.45;1.38;;;;;;;-148.88;96.97;76167.25;5040743;28;20025;-86
2022/12/30 09:38:23;;;;;;;5.97;1.23;;;;;;;-148.88;97.37;76159.13;5022764;28;20136;-85
2022/12/30 09:41:04;;;;;;;7.50;1.35;;;;;;;-148.88;97.61;76159.13;5022557;28;20091;-85
2022/12/30 09:43:42;;;;;;;2.92;1.00;;;;;;;-148.88;97.12;76151.00;5022781;28;20025;-84
2022/12/30 09:46:16;;;;;;;6.05;1.38;;;;;;;-148.88;96.96;76151.00;5022311;28;20053;-85
2022/12/30 09:49:03;;;;;;;6.70;1.48;;;;;;;-148.88;97.18;76151.00;5023000;28;20026;-84
2022/12/30 09:51:42;;;;;;;4.97;1.23;;;;;;;-148.88;96.97;76140.84;5022531;28;20029;-85
2022/12/30 09:54:17;;;;;;;4.40;1.23;;;;;;;-148.88;96.69;76132.72;5035666;28;20486;-84
2022/12/30 09:56:46;;;;;;;7.60;2.45;;;;;;;-148.88;95.77;76110.34;5019358;28;20028;-84
2022/12/30 09:59:27;;;;;;;7.10;1.55;;;;;;;-148.88;96.30;76106.28;5019390;28;20064;-84
2022/12/30 10:02:02;;;;;;;8.05;1.60;;;;;;;-148.88;95.67;76096.13;5019046;28;20036;-85
2022/12/30 10:04:37;;;;;;;3.50;1.30;;;;;;;-148.88;95.59;76088.00;5018953;28;20401;-84
2022/12/30 10:07:13;;;;;;;5.05;1.00;;;;;;;-148.88;95.89;76081.91;5018788;28;20035;-84
2022/12/30 10:10:06;;;;;;;3.92;1.27;;;;;;;-148.88;95.39;76073.78;5020042;28;20036;-87
2022/12/30 10:12:43;;;;;;;4.77;1.60;;;;;;;-148.88;94.38;76055.50;5019023;28;20025;-85
2022/12/30 10:15:42;;;;;;;3.13;1.13;;;;;;;-148.88;94.76;76045.34;5019508;28;20030;-86
2022/12/30 10:18:28;;;;;;;5.60;1.58;;;;;;;-148.88;94.57;76033.16;5020045;28;20029;-85
2022/12/30 10:21:27;;;;;;;6.05;1.33;;;;;;;-148.88;94.31;76029.09;5019779;28;20465;-85
2022/12/30 10:34:35;;;;;;;6.78;1.30;;;;;;;-148.88;93.72;75966.13;4956852;29;20042;-85
2022/12/30 10:37:10;;;;;;;7.32;1.20;;;;;;;-148.88;93.58;75955.97;5011708;28;20041;-86
2022/12/30 10:39:44;;;;;;;3.55;1.10;;;;;;;-148.88;93.29;75945.81;5019609;28;20504;-85
2022/12/30 10:42:28;;;;;;;4.45;1.23;;;;;;;-148.88;93.55;75935.66;5037093;28;20021;-85
2022/12/30 10:45:27;;;;;;;2.10;0.80;;;;;;;-148.88;93.71;75929.56;5018287;28;20477;-85
2022/12/30 10:48:29;;;;;;;3.92;1.17;;;;;;;-148.88;93.37;75915.34;5017653;28;20072;-85
2022/12/30 10:51:45;;;;;;;3.58;1.10;;;;;;;-148.88;93.51;75901.13;5020638;28;20394;-85
2022/12/30 10:54:16;;;;;;;6.97;1.55;;;;;;;-148.88;93.07;75878.78;5019484;28;20064;-86
2022/12/30 10:56:43;;;;;;;6.40;1.33;;;;;;;-148.88;93.02;75876.75;5019813;28;20048;-85
2022/12/30 11:00:13;;;;;;;4.20;1.00;;;;;;;-148.88;93.21;75864.56;5020691;28;20351;-85
2022/12/30 11:02:39;;;;;;;5.60;1.42;;;;;;;-148.88;93.14;75860.50;4960173;28;20030;-85
2022/12/30 11:05:34;;;;;;;6.35;1.23;;;;;;;-148.88;92.64;75846.28;4958623;28;20027;-85
2022/12/30 11:08:18;;;;;;;4.38;0.98;;;;;;;-148.88;91.73;75842.22;4959962;28;20035;-86
2022/12/30 11:16:41;;;;;;;6.43;1.20;;;;;;;-148.88;90.58;75803.63;5036050;28;20516;-84
2022/12/30 11:19:23;;;;;;;9.23;1.70;;;;;;;-148.88;90.79;75799.56;5035219;28;20504;-85
2022/12/30 11:22:13;;;;;;;3.25;1.08;;;;;;;-148.88;90.70;75793.47;5035928;28;20021;-84
2022/12/30 11:25:13;;;;;;;;;;;;;;;;;;;;;
2022/12/30 11:28:12;;;;;;;5.60;1.20;;;;;;;-148.88;90.04;75787.38;5037311;28;20116;-84
2022/12/30 11:31:03;;;;;;;7.28;1.17;;;;;;;-148.88;90.03;75777.22;5031202;28;20482;-86
2022/12/30 11:34:03;;;;;;;3.20;1.10;;;;;;;-148.88;90.32;75773.16;5035274;28;20032;-85
2022/12/30 11:36:31;;;;;;;4.70;1.52;;;;;;;-148.88;89.78;75765.03;5017357;28;20075;-85
2022/12/30 11:39:07;;;;;;;3.88;1.02;;;;;;;-148.88;89.26;75760.97;5034803;28;20033;-85
2022/12/30 11:45:33;;;;;;;8.25;1.30;;;;;;;-148.88;89.85;75744.72;5017758;28;20026;-87
2022/12/30 11:47:59;;;;;;;3.83;1.02;;;;;;;-148.88;89.68;75740.66;5017074;28;20029;-87
2022/12/30 11:50:27;;;;;;;3.45;0.95;;;;;;;-148.88;89.78;75730.50;5033924;28;20399;-86
2022/12/30 11:53:13;;;;;;;2.92;0.88;;;;;;;-148.88;89.76;75728.47;5034494;28;20028;-87
2022/12/30 11:56:06;;;;;;;3.55;1.00;;;;;;;-148.88;89.43;75728.47;5001970;28;20025;-87
2022/12/30 11:59:05;;;;;;;2.72;0.85;;;;;;;-148.88;89.48;75724.41;5014402;28;20029;-87
2022/12/30 12:02:05;;;;;;;3.60;1.17;;;;;;;-148.88;88.90;75710.19;5016426;28;20085;-86
2022/12/30 12:04:40;;;;;;;4.88;1.13;;;;;;;-148.88;88.24;75691.91;5016378;28;20462;-88
2022/12/30 12:12:53;;;;;;;4.72;1.20;;;;;;;-148.88;87.99;75695.97;5012313;28;20053;-76
2022/12/30 12:15:25;;;;;;;4.65;1.38;;;;;;;-148.88;88.18;75695.97;5013799;28;20033;-76
2022/12/30 12:18:09;;;;;;;3.90;1.35;;;;;;;-148.88;87.40;75683.78;4996035;28;20045;-76
2022/12/30 12:20:38;;;;;;;;;;;;;;;-148.88;88.06;75691.91;4996254;28;20026;-76
2022/12/30 12:23:45;;;;;;;5.65;1.80;;;;;;;-148.88;88.43;75683.78;5013461;28;19910;-75
2022/12/30 12:26:17;;;;;;;4.53;1.20;;;;;;;-148.88;88.21;75693.94;5013423;28;20026;-76
2022/12/30 12:28:46;;;;;;;5.57;1.42;;;;;;;-148.88;88.24;75689.88;5013594;28;20022;-76
2022/12/30 12:31:38;;;;;;;5.32;1.20;;;;;;;-148.88;88.27;75693.94;5013637;28;20069;-76
2022/12/30 12:34:28;;;;;;;4.72;1.30;;;;;;;-148.88;88.45;75691.91;5013370;28;20021;-76
2022/12/30 12:37:18;;;;;;;3.92;1.08;;;;;;;-148.88;87.93;75687.84;5013495;28;20076;-76
2022/12/30 12:39:56;;;;;;;4.60;1.40;;;;;;;-148.88;88.50;75683.78;5013816;28;20026;-75
2022/12/30 12:42:47;;;;;;;3.22;1.20;;;;;;;-148.88;87.88;75663.47;4995582;28;20026;-75
2022/12/30 12:46:00;;;;;;;5.97;1.75;;;;;;;-148.88;88.08;75667.53;5013291;28;20393;-76
2022/12/30 12:48:41;;;;;;;3.63;1.30;;;;;;;-148.88;87.80;75647.22;4968066;28;20335;-76
2022/12/30 12:51:30;;;;;;;4.90;1.17;;;;;;;-148.88;86.90;75641.13;5013387;28;20542;-76
2022/12/30 12:54:05;;;;;;;6.07;1.30;;;;;;;-148.88;87.30;75643.16;5013446;28;20025;-76
2022/12/30 12:56:51;;;;;;;5.22;1.88;;;;;;;-148.88;86.42;75622.84;5013202;28;20044;-76